createdAt,value
2024-05-09T00:00:45.707Z,73.52
2024-05-09T00:03:13.291Z,74.10
2024-05-09T00:05:41.553Z,73.46
2024-05-09T00:08:09.887Z,73.75
2024-05-09T00:10:39.158Z,73.79
2024-05-09T00:13:08.872Z,73.55
2024-05-09T00:15:36.789Z,73.42
2024-05-09T00:18:06.832Z,73.36
2024-05-09T00:20:38.959Z,73.49
2024-05-09T00:23:12.938Z,73.35
2024-05-09T00:25:42.852Z,73.40
2024-05-09T00:28:11.530Z,73.41
2024-05-09T00:30:38.845Z,73.67
2024-05-09T00:33:07.580Z,73.14
2024-05-09T00:35:36.477Z,73.36
2024-05-09T00:38:04.208Z,73.29
2024-05-09T00:40:44.910Z,72.75
2024-05-09T00:43:14.112Z,73.32
2024-05-09T00:45:42.979Z,72.85
2024-05-09T00:48:14.277Z,73.00
2024-05-09T00:50:46.110Z,73.20
2024-05-09T00:53:16.049Z,72.87
2024-05-09T00:55:44.232Z,73.36
2024-05-09T00:58:16.403Z,72.92
2024-05-09T01:00:44.425Z,72.98
2024-05-09T01:03:13.740Z,72.82
2024-05-09T01:05:42.880Z,72.81
2024-05-09T01:08:12.200Z,73.11
2024-05-09T01:10:42.836Z,72.52
2024-05-09T01:13:12.602Z,72.83
2024-05-09T01:15:40.091Z,72.63
2024-05-09T01:18:11.031Z,72.56
2024-05-09T01:20:42.530Z,72.79
2024-05-09T01:23:14.024Z,72.57
2024-05-09T01:25:46.367Z,72.54
2024-05-09T01:28:15.171Z,72.31
2024-05-09T01:30:42.640Z,72.52
2024-05-09T01:33:11.612Z,72.29
2024-05-09T01:35:41.693Z,72.54
2024-05-09T01:38:12.948Z,72.17
2024-05-09T01:40:40.962Z,72.06
2024-05-09T01:43:10.080Z,72.27
2024-05-09T01:45:39.297Z,72.53
2024-05-09T01:48:08.442Z,72.31
2024-05-09T01:50:40.086Z,72.09
2024-05-09T01:53:15.223Z,71.93
2024-05-09T01:55:43.423Z,71.79
2024-05-09T01:58:10.858Z,71.81
2024-05-09T02:00:42.239Z,71.88
2024-05-09T02:03:14.805Z,72.12
2024-05-09T02:05:45.930Z,71.36
2024-05-09T02:08:21.541Z,72.18
2024-05-09T02:10:50.379Z,71.74
2024-05-09T02:13:18.172Z,71.92
2024-05-09T02:15:45.593Z,71.92
2024-05-09T02:18:13.123Z,71.75
2024-05-09T02:20:42.278Z,71.26
2024-05-09T02:23:10.404Z,71.36
2024-05-09T02:25:37.830Z,71.11
2024-05-09T02:28:05.358Z,71.46
2024-05-09T02:30:39.435Z,71.53
2024-05-09T02:33:13.457Z,70.99
2024-05-09T02:35:43.689Z,71.18
2024-05-09T02:38:12.213Z,71.38
2024-05-09T02:40:40.518Z,71.09
2024-05-09T02:43:10.522Z,71.31
2024-05-09T02:45:39.687Z,71.17
2024-05-09T02:48:10.877Z,70.95
2024-05-09T02:50:40.649Z,71.06
2024-05-09T02:53:08.887Z,71.13
2024-05-09T02:55:37.035Z,70.81
2024-05-09T02:58:04.601Z,71.02
2024-05-09T03:00:38.542Z,71.02
2024-05-09T03:03:10.496Z,70.97
2024-05-09T03:05:40.450Z,70.23
2024-05-09T03:08:08.315Z,70.02
2024-05-09T03:10:38.001Z,70.67
2024-05-09T03:13:14.137Z,70.54
2024-05-09T03:15:43.198Z,70.70
2024-05-09T03:18:11.625Z,71.13
2024-05-09T03:20:39.917Z,70.50
2024-05-09T03:23:09.628Z,70.65
2024-05-09T03:25:38.340Z,70.61
2024-05-09T03:28:06.281Z,70.60
2024-05-09T03:30:40.838Z,70.19
2024-05-09T03:33:12.898Z,70.66
2024-05-09T03:35:41.181Z,70.39
2024-05-09T03:38:09.065Z,70.45
2024-05-09T03:40:36.191Z,70.21
2024-05-09T03:43:03.639Z,70.65
2024-05-09T03:45:30.957Z,70.30
2024-05-09T03:47:58.279Z,70.25
2024-05-09T03:50:30.383Z,70.19
2024-05-09T03:53:02.345Z,70.18
2024-05-09T03:55:29.831Z,70.27
2024-05-09T03:57:57.083Z,69.85
2024-05-09T04:00:31.333Z,69.98
2024-05-09T04:03:07.672Z,69.34
2024-05-09T04:05:39.851Z,70.04
2024-05-09T04:08:07.657Z,70.06
2024-05-09T04:10:35.465Z,69.98
2024-05-09T04:13:04.162Z,69.80
2024-05-09T04:15:32.248Z,69.39
2024-05-09T04:18:00.587Z,69.75
2024-05-09T04:20:36.545Z,69.68
2024-05-09T04:23:09.015Z,69.29
2024-05-09T04:25:37.668Z,69.37
2024-05-09T04:28:05.531Z,69.76
2024-05-09T04:30:38.198Z,69.66
2024-05-09T04:33:11.943Z,69.62
2024-05-09T04:35:44.984Z,69.64
2024-05-09T04:38:13.791Z,69.45
2024-05-09T04:40:42.128Z,69.17
2024-05-09T04:43:17.198Z,69.48
2024-05-09T04:45:44.889Z,69.51
2024-05-09T04:48:12.934Z,69.23
2024-05-09T04:50:40.314Z,69.52
2024-05-09T04:53:09.811Z,69.22
2024-05-09T04:55:38.704Z,69.39
2024-05-09T04:58:08.572Z,69.39
2024-05-09T05:00:39.118Z,69.40
2024-05-09T05:03:11.319Z,69.42
2024-05-09T05:05:41.830Z,69.50
2024-05-09T05:08:13.399Z,69.40
2024-05-09T05:10:41.753Z,69.88
2024-05-09T05:13:25.098Z,69.80
2024-05-09T05:15:57.424Z,69.29
2024-05-09T05:18:26.869Z,69.46
2024-05-09T05:20:56.659Z,69.38
2024-05-09T05:23:25.016Z,69.49
2024-05-09T05:25:53.212Z,69.36
2024-05-09T05:28:21.797Z,69.31
2024-05-09T05:30:49.541Z,69.51
2024-05-09T05:33:19.260Z,69.58
2024-05-09T05:35:47.180Z,69.40
2024-05-09T05:38:14.680Z,69.64
2024-05-09T05:40:42.449Z,69.72
2024-05-09T05:43:16.816Z,69.36
2024-05-09T05:45:44.180Z,69.23
2024-05-09T05:48:13.297Z,69.52
2024-05-09T05:50:40.533Z,69.57
2024-05-09T05:53:09.166Z,69.37
2024-05-09T05:55:40.676Z,69.55
2024-05-09T05:58:12.556Z,69.48
2024-05-09T06:00:41.737Z,69.80
2024-05-09T06:03:11.809Z,69.68
2024-05-09T06:05:40.748Z,69.74
2024-05-09T06:08:09.376Z,69.78
2024-05-09T06:10:39.784Z,69.64
2024-05-09T06:13:11.487Z,69.81
2024-05-09T06:15:40.627Z,69.56
2024-05-09T06:18:11.832Z,69.70
2024-05-09T06:20:44.058Z,69.62
2024-05-09T06:23:14.581Z,69.75
2024-05-09T06:25:42.785Z,69.70
2024-05-09T06:28:10.756Z,69.75
2024-05-09T06:30:42.335Z,69.87
2024-05-09T06:33:13.466Z,69.92
2024-05-09T06:35:43.072Z,69.64
2024-05-09T06:38:11.445Z,69.68
2024-05-09T06:40:41.471Z,70.05
2024-05-09T06:43:18.875Z,69.95
2024-05-09T06:45:48.614Z,69.84
2024-05-09T06:48:21.574Z,69.79
2024-05-09T06:50:50.005Z,69.67
2024-05-09T06:53:20.490Z,69.83
2024-05-09T06:55:49.218Z,70.06
2024-05-09T06:58:17.028Z,69.96
2024-05-09T07:00:44.052Z,69.84
2024-05-09T07:03:15.392Z,69.69
2024-05-09T07:05:45.848Z,69.75
2024-05-09T07:08:14.264Z,69.77
2024-05-09T07:10:42.081Z,69.89
2024-05-09T07:13:13.636Z,69.70
2024-05-09T07:15:41.804Z,70.08
2024-05-09T07:18:17.921Z,69.83
2024-05-09T07:20:47.029Z,69.78
2024-05-09T07:23:15.751Z,69.89
2024-05-09T07:25:43.589Z,69.68
2024-05-09T07:28:16.291Z,69.56
2024-05-09T07:30:43.908Z,70.14
2024-05-09T07:33:23.182Z,69.96
2024-05-09T07:35:51.925Z,69.84
2024-05-09T07:38:19.154Z,70.00
2024-05-09T07:40:46.759Z,69.74
2024-05-09T07:43:16.046Z,69.67
2024-05-09T07:45:52.026Z,69.76
2024-05-09T07:52:38.331Z,69.54
2024-05-09T07:53:49.970Z,69.66
2024-05-09T07:56:22.315Z,69.36
2024-05-09T07:58:52.452Z,69.48
2024-05-09T08:01:21.169Z,69.58
2024-05-09T08:03:48.608Z,68.87
2024-05-09T08:06:15.917Z,69.35
2024-05-09T08:08:43.062Z,69.33
2024-05-09T08:15:01.815Z,71.15
2024-05-09T08:17:29.128Z,69.07
2024-05-09T08:19:56.343Z,69.26
2024-05-09T08:22:23.369Z,68.43
2024-05-09T08:24:50.894Z,69.49
2024-05-09T08:27:18.364Z,69.10
2024-05-09T08:29:45.581Z,68.60
2024-05-09T08:32:13.990Z,68.88
2024-05-09T08:34:41.033Z,68.95
2024-05-09T08:37:13.224Z,68.29
2024-05-09T08:39:46.899Z,68.57
2024-05-09T08:42:17.782Z,68.56
2024-05-09T08:44:48.172Z,68.47
2024-05-09T08:47:16.090Z,67.51
2024-05-09T08:49:43.337Z,67.81
2024-05-09T08:52:12.297Z,68.16
2024-05-09T08:54:39.677Z,67.72
2024-05-09T08:57:08.003Z,67.66
2024-05-09T08:59:38.811Z,67.45
2024-05-09T09:02:06.751Z,68.08
2024-05-09T09:04:37.649Z,69.66
2024-05-09T09:07:06.187Z,69.41
2024-05-09T09:09:35.099Z,69.18
2024-05-09T09:12:02.174Z,69.22
2024-05-09T09:14:29.333Z,69.46
2024-05-09T09:16:56.532Z,68.93
2024-05-09T09:19:23.771Z,69.47
2024-05-09T09:21:51.209Z,69.09
2024-05-09T09:24:18.188Z,69.36
2024-05-09T09:26:45.481Z,68.88
2024-05-09T09:29:12.754Z,69.00
2024-05-09T09:31:42.107Z,68.57
2024-05-09T09:34:09.647Z,68.51
2024-05-09T09:36:39.178Z,68.49
2024-05-09T09:39:07.640Z,68.99
2024-05-09T09:41:36.929Z,68.91
2024-05-09T09:44:09.022Z,68.82
2024-05-09T09:46:37.051Z,68.91
2024-05-09T09:49:04.570Z,68.79
2024-05-09T09:51:32.999Z,66.58
2024-05-09T09:54:02.865Z,68.01
2024-05-09T09:56:32.524Z,68.25
2024-05-09T09:59:01.554Z,66.13
2024-05-09T10:01:29.172Z,67.63
2024-05-09T10:03:57.956Z,67.27
2024-05-09T10:06:26.345Z,64.62
2024-05-09T10:08:54.720Z,64.55
2024-05-09T10:11:22.161Z,65.77
2024-05-09T10:13:51.300Z,67.12
2024-05-09T10:16:22.851Z,66.63
2024-05-09T10:18:50.583Z,65.41
2024-05-09T10:21:19.779Z,64.87
2024-05-09T10:24:03.868Z,64.13
2024-05-09T10:26:35.888Z,64.94
2024-05-09T10:29:16.791Z,66.21
2024-05-09T10:31:46.038Z,66.22
2024-05-09T10:34:21.710Z,63.38
2024-05-09T10:36:52.503Z,65.49
2024-05-09T10:39:25.262Z,65.82
2024-05-09T10:41:52.662Z,64.95
2024-05-09T10:44:21.496Z,64.51
2024-05-09T10:46:50.364Z,65.51
2024-05-09T10:49:17.900Z,65.58
2024-05-09T10:51:47.261Z,65.11
2024-05-09T10:54:14.367Z,64.43
2024-05-09T10:56:42.379Z,65.16
2024-05-09T10:59:09.808Z,64.25
2024-05-09T11:01:37.270Z,63.71
2024-05-09T11:04:05.847Z,63.14
2024-05-09T11:06:35.330Z,63.48
2024-05-09T11:09:02.333Z,64.73
2024-05-09T11:11:29.785Z,64.25
2024-05-09T11:13:57.244Z,63.99
2024-05-09T11:16:24.512Z,63.86
2024-05-09T11:18:56.232Z,64.77
2024-05-09T11:21:24.532Z,64.63
2024-05-09T11:23:52.385Z,64.79
2024-05-09T11:26:21.587Z,64.50
2024-05-09T11:28:50.358Z,63.70
2024-05-09T11:31:18.057Z,64.84
2024-05-09T11:33:45.720Z,64.05
2024-05-09T11:36:13.279Z,64.24
2024-05-09T11:38:40.933Z,63.96
2024-05-09T11:41:08.174Z,64.05
2024-05-09T11:43:35.608Z,63.40
2024-05-09T11:46:04.004Z,63.76
2024-05-09T11:48:32.386Z,63.83
2024-05-09T11:51:00.087Z,62.54
2024-05-09T11:53:27.350Z,63.20
2024-05-09T11:55:54.836Z,61.94
2024-05-09T11:58:23.626Z,63.02
2024-05-09T12:00:50.613Z,62.12
2024-05-09T12:03:17.788Z,61.86
2024-05-09T12:05:44.995Z,61.51
2024-05-09T12:08:12.672Z,60.82
2024-05-09T12:10:39.892Z,62.00
2024-05-09T12:13:07.768Z,61.09
2024-05-09T12:15:39.136Z,62.28
2024-05-09T12:18:09.482Z,62.16
2024-05-09T12:20:39.330Z,62.48
2024-05-09T12:23:09.777Z,63.40
2024-05-09T12:25:39.769Z,63.81
2024-05-09T12:28:08.109Z,63.75
2024-05-09T12:30:40.100Z,64.08
2024-05-09T12:33:13.205Z,64.23
2024-05-09T12:35:44.018Z,64.05
2024-05-09T12:38:14.525Z,63.63
2024-05-09T12:40:42.324Z,62.92
2024-05-09T12:43:10.830Z,61.91
2024-05-09T12:45:39.434Z,62.52
2024-05-09T12:48:11.649Z,62.16
2024-05-09T12:50:40.139Z,61.48
2024-05-09T12:53:07.558Z,61.10
2024-05-09T12:55:43.801Z,61.64
2024-05-09T12:58:17.760Z,61.91
2024-05-09T13:00:45.912Z,62.12
2024-05-09T13:03:13.802Z,62.98
2024-05-09T13:05:41.540Z,62.92
2024-05-09T13:08:09.684Z,62.44
2024-05-09T13:10:37.235Z,62.30
2024-05-09T13:13:04.817Z,60.88
2024-05-09T13:15:35.072Z,60.66
2024-05-09T13:18:03.685Z,61.08
2024-05-09T13:20:34.577Z,61.72
2024-05-09T13:23:08.004Z,61.24
2024-05-09T13:25:37.343Z,60.73
2024-05-09T13:28:06.580Z,61.88
2024-05-09T13:30:39.523Z,60.91
2024-05-09T13:33:14.030Z,60.42
2024-05-09T13:35:46.633Z,61.18
2024-05-09T13:38:21.198Z,59.84
2024-05-09T13:40:50.031Z,58.88
2024-05-09T13:43:18.422Z,59.38
2024-05-09T13:45:46.168Z,61.74
2024-05-09T13:48:13.366Z,61.58
2024-05-09T13:50:42.106Z,61.54
2024-05-09T13:53:09.477Z,58.75
2024-05-09T13:55:40.629Z,58.87
2024-05-09T13:58:09.326Z,59.52
2024-05-09T14:00:45.076Z,59.64
2024-05-09T14:03:18.939Z,62.04
2024-05-09T14:05:48.250Z,62.56
2024-05-09T14:08:15.826Z,62.54
2024-05-09T14:10:47.167Z,60.57
2024-05-09T14:13:15.411Z,60.95
2024-05-09T14:15:43.222Z,60.40
2024-05-09T14:18:13.263Z,60.67
2024-05-09T14:20:42.433Z,62.28
2024-05-09T14:23:09.887Z,62.87
2024-05-09T14:25:42.004Z,63.11
2024-05-09T14:28:10.861Z,63.24
2024-05-09T14:30:39.071Z,63.38
2024-05-09T14:33:08.292Z,63.72
2024-05-09T14:35:37.808Z,62.72
2024-05-09T14:38:06.761Z,61.64
2024-05-09T14:40:40.755Z,61.70
2024-05-09T14:43:12.075Z,62.90
2024-05-09T14:45:40.102Z,63.13
2024-05-09T14:48:08.392Z,63.53
2024-05-09T14:50:38.985Z,62.91
2024-05-09T14:53:11.158Z,63.28
2024-05-09T14:55:41.032Z,63.53
2024-05-09T14:58:10.563Z,63.18
2024-05-09T15:00:47.708Z,64.18
2024-05-09T15:03:19.090Z,64.28
2024-05-09T15:05:47.494Z,63.91
2024-05-09T15:08:17.002Z,64.19
2024-05-09T15:10:44.230Z,63.62
2024-05-09T15:13:13.283Z,64.16
2024-05-09T15:15:42.788Z,64.01
2024-05-09T15:18:09.964Z,64.06
2024-05-09T15:20:38.047Z,63.26
2024-05-09T15:23:07.143Z,62.71
2024-05-09T15:25:35.203Z,62.42
2024-05-09T15:28:02.978Z,62.33
2024-05-09T15:30:32.907Z,61.90
2024-05-09T15:33:03.786Z,61.78
2024-05-09T15:35:31.901Z,61.68
2024-05-09T15:38:00.655Z,61.24
2024-05-09T15:40:36.149Z,61.51
2024-05-09T15:43:08.680Z,62.18
2024-05-09T15:45:36.915Z,61.92
2024-05-09T15:48:05.597Z,62.17
2024-05-09T15:50:38.353Z,61.52
2024-05-09T15:53:10.016Z,60.97
2024-05-09T15:55:38.702Z,61.30
2024-05-09T15:58:07.233Z,61.47
2024-05-09T16:00:39.329Z,60.82
2024-05-09T16:03:14.328Z,60.93
2024-05-09T16:05:46.749Z,60.84
2024-05-09T16:08:15.024Z,61.00
2024-05-09T16:10:44.378Z,61.51
2024-05-09T16:13:13.385Z,61.27
2024-05-09T16:15:41.015Z,62.06
2024-05-09T16:18:08.405Z,61.92
2024-05-09T16:20:40.120Z,62.12
2024-05-09T16:23:09.980Z,61.80
2024-05-09T16:25:37.664Z,61.32
2024-05-09T16:28:08.591Z,61.26
2024-05-09T16:30:40.676Z,61.02
2024-05-09T16:33:08.894Z,61.75
2024-05-09T16:35:37.481Z,61.53
2024-05-09T16:38:06.356Z,60.76
2024-05-09T16:40:38.610Z,61.16
2024-05-09T16:43:09.771Z,60.97
2024-05-09T16:45:39.494Z,61.18
2024-05-09T16:48:07.854Z,60.99
2024-05-09T16:50:36.013Z,61.32
2024-05-09T16:53:04.892Z,61.16
2024-05-09T16:55:33.209Z,61.03
2024-05-09T16:58:01.140Z,61.02
2024-05-09T17:00:38.492Z,61.82
2024-05-09T17:03:11.537Z,60.81
2024-05-09T17:05:39.776Z,60.54
2024-05-09T17:08:07.921Z,60.62
2024-05-09T17:10:36.320Z,60.82
2024-05-09T17:13:06.102Z,60.67
2024-05-09T17:15:35.391Z,60.30
2024-05-09T17:18:04.030Z,60.68
2024-05-09T17:20:34.819Z,60.52
2024-05-09T17:23:06.117Z,59.76
2024-05-09T17:25:34.271Z,59.97
2024-05-09T17:28:07.504Z,60.18
2024-05-09T17:30:38.041Z,59.53
2024-05-09T17:33:08.445Z,59.66
2024-05-09T17:35:36.491Z,59.52
2024-05-09T17:38:07.250Z,59.18
2024-05-09T17:40:37.092Z,60.02
2024-05-09T17:43:10.700Z,59.60
2024-05-09T17:45:40.963Z,59.50
2024-05-09T17:48:09.847Z,59.30
2024-05-09T17:50:38.307Z,58.83
2024-05-09T17:53:06.629Z,58.77
2024-05-09T17:55:34.238Z,58.34
2024-05-09T17:58:01.734Z,59.37
2024-05-09T18:00:37.360Z,59.99
2024-05-09T18:03:08.975Z,60.11
2024-05-09T18:05:37.594Z,59.28
2024-05-09T18:08:06.294Z,58.60
2024-05-09T18:10:37.825Z,59.18
2024-05-09T18:13:11.525Z,59.48
2024-05-09T18:15:39.523Z,59.76
2024-05-09T18:18:08.928Z,59.60
2024-05-09T18:20:42.926Z,60.68
2024-05-09T18:23:14.844Z,60.18
2024-05-09T18:25:43.059Z,60.39
2024-05-09T18:28:10.305Z,60.31
2024-05-09T18:30:37.952Z,60.88
2024-05-09T18:33:07.650Z,60.58
2024-05-09T18:35:36.396Z,60.76
2024-05-09T18:38:05.055Z,61.43
2024-05-09T18:40:36.129Z,60.14
2024-05-09T18:43:07.171Z,61.14
2024-05-09T18:45:37.882Z,60.69
2024-05-09T18:48:06.972Z,61.10
2024-05-09T18:50:38.711Z,61.16
2024-05-09T18:53:08.486Z,60.66
2024-05-09T18:55:35.936Z,60.84
2024-05-09T18:58:04.393Z,61.07
2024-05-09T19:00:36.071Z,61.11
2024-05-09T19:03:09.578Z,61.26
2024-05-09T19:05:39.190Z,61.36
2024-05-09T19:08:07.940Z,61.56
2024-05-09T19:10:37.494Z,61.54
2024-05-09T19:13:09.085Z,62.12
2024-05-09T19:15:39.902Z,61.63
2024-05-09T19:18:08.170Z,62.10
2024-05-09T19:20:36.865Z,62.08
2024-05-09T19:23:06.059Z,62.78
2024-05-09T19:25:34.581Z,63.06
2024-05-09T19:28:02.143Z,63.32
2024-05-09T19:30:37.668Z,63.50
2024-05-09T19:33:09.298Z,63.87
2024-05-09T19:35:37.259Z,63.70
2024-05-09T19:38:05.142Z,63.68
2024-05-09T19:40:34.283Z,63.75
2024-05-09T19:43:03.279Z,63.90
2024-05-09T19:45:32.861Z,64.36
2024-05-09T19:48:00.740Z,64.40
2024-05-09T19:50:36.897Z,64.97
2024-05-09T19:53:10.119Z,64.75
2024-05-09T19:55:37.685Z,64.96
2024-05-09T19:58:07.084Z,65.05
2024-05-09T20:00:41.221Z,64.76
2024-05-09T20:03:12.175Z,65.13
2024-05-09T20:05:39.932Z,64.93
2024-05-09T20:08:07.649Z,65.27
2024-05-09T20:10:36.211Z,65.25
2024-05-09T20:13:06.910Z,65.63
2024-05-09T20:15:36.410Z,65.57
2024-05-09T20:18:04.479Z,65.79
2024-05-09T20:20:37.792Z,65.85
2024-05-09T20:23:09.444Z,65.95
2024-05-09T20:25:36.982Z,65.36
2024-05-09T20:28:05.261Z,65.47
2024-05-09T20:30:36.264Z,65.93
2024-05-09T20:33:05.918Z,66.22
2024-05-09T20:35:34.350Z,66.00
2024-05-09T20:38:03.582Z,66.13
2024-05-09T20:40:35.531Z,66.18
2024-05-09T20:43:06.973Z,65.93
2024-05-09T20:45:34.784Z,66.22
2024-05-09T20:48:02.270Z,66.54
2024-05-09T20:50:37.233Z,66.60
2024-05-09T20:53:12.893Z,66.40
2024-05-09T20:55:41.113Z,66.52
2024-05-09T20:58:09.125Z,66.72
2024-05-09T21:00:40.523Z,66.93
2024-05-09T21:03:12.494Z,67.04
2024-05-09T21:05:40.814Z,67.06
2024-05-09T21:08:09.109Z,67.08
2024-05-09T21:10:37.549Z,66.90
2024-05-09T21:13:07.042Z,67.44
2024-05-09T21:15:36.212Z,67.44
2024-05-09T21:18:04.564Z,67.22
2024-05-09T21:20:35.012Z,67.70
2024-05-09T21:23:03.086Z,67.90
2024-05-09T21:25:31.061Z,67.80
2024-05-09T21:27:58.330Z,68.00
2024-05-09T21:30:32.700Z,67.86
2024-05-09T21:33:10.105Z,67.82
2024-05-09T21:35:38.778Z,68.09
2024-05-09T21:38:07.226Z,68.13
2024-05-09T21:40:36.158Z,67.99
2024-05-09T21:43:05.316Z,68.28
2024-05-09T21:45:34.206Z,68.29
2024-05-09T21:48:03.600Z,68.39
2024-05-09T21:50:37.121Z,68.14
2024-05-09T21:53:08.222Z,68.45
2024-05-09T21:55:35.607Z,68.40
2024-05-09T21:58:03.333Z,68.24
2024-05-09T22:00:36.533Z,68.50
2024-05-09T22:03:10.865Z,68.32
2024-05-09T22:05:42.489Z,68.49
2024-05-09T22:08:10.702Z,68.81
2024-05-09T22:10:37.835Z,68.56
2024-05-09T22:13:06.498Z,68.95
2024-05-09T22:15:39.457Z,68.81
2024-05-09T22:18:09.725Z,68.79
2024-05-09T22:20:43.679Z,68.85
2024-05-09T22:23:12.355Z,68.89
2024-05-09T22:25:40.041Z,68.48
2024-05-09T22:28:07.528Z,68.91
2024-05-09T22:30:38.256Z,69.01
2024-05-09T22:33:09.408Z,69.01
2024-05-09T22:35:37.695Z,69.05
2024-05-09T22:38:05.876Z,69.21
2024-05-09T22:40:42.527Z,69.30
2024-05-09T22:43:23.924Z,69.10
2024-05-09T22:45:54.590Z,68.96
2024-05-09T22:48:22.264Z,69.06
2024-05-09T22:50:49.678Z,69.21
2024-05-09T22:53:16.654Z,69.18
2024-05-09T22:55:43.838Z,69.26
2024-05-09T22:58:10.985Z,69.38
2024-05-09T23:00:38.104Z,69.32
2024-05-09T23:03:05.503Z,69.41
2024-05-09T23:05:33.160Z,69.56
2024-05-09T23:08:01.466Z,69.16
2024-05-09T23:10:35.475Z,68.98
2024-05-09T23:13:05.170Z,69.46
2024-05-09T23:15:32.442Z,69.18
2024-05-09T23:17:59.910Z,69.31
2024-05-09T23:20:36.002Z,69.25
2024-05-09T23:23:07.981Z,69.32
2024-05-09T23:25:36.398Z,69.38
2024-05-09T23:28:04.229Z,69.70
2024-05-09T23:30:37.600Z,69.40
2024-05-09T23:33:09.060Z,69.30
2024-05-09T23:35:36.535Z,69.68
2024-05-09T23:38:04.000Z,69.66
2024-05-09T23:40:38.417Z,69.72
2024-05-09T23:43:12.453Z,69.90
2024-05-09T23:45:41.042Z,69.72
2024-05-09T23:48:09.641Z,69.86
2024-05-09T23:50:38.794Z,69.88
2024-05-09T23:53:09.069Z,69.73
2024-05-09T23:55:37.664Z,69.92
2024-05-09T23:58:05.797Z,69.74
